DESEF EDLW-ZZZZ

Flight info

Callsign DESEF
Flight time N/A
Altitude
Route DCT N
Aircraft A210

Departure

Time 2026-04-30 18:54
Airport Dortmund Airport (EDLW)

Arrival

Time N/A
Airport ZZZZ
Time Latitude Longitude Altitude Speed Heading
2026-04-30 18:45 51.51194 7.60418 451 ft 0 kts 105°
2026-04-30 18:47 51.51203 7.60427 450 ft 3 kts 12°
2026-04-30 18:47 51.51221 7.60443 449 ft 0 kts 20°
2026-04-30 18:47 51.51223 7.60444 449 ft 1 kts
2026-04-30 18:47 51.51220 7.60413 449 ft 8 kts 234°
2026-04-30 18:48 51.51167 7.60244 451 ft 12 kts 236°
2026-04-30 18:48 51.51187 7.60145 448 ft 12 kts 19°
2026-04-30 18:48 51.51224 7.60239 448 ft 8 kts 64°
2026-04-30 18:48 51.51252 7.60321 446 ft 10 kts 61°
2026-04-30 18:49 51.51300 7.60454 442 ft 16 kts 63°
2026-04-30 18:49 51.51358 7.60626 440 ft 18 kts 62°
2026-04-30 18:49 51.51422 7.60813 436 ft 19 kts 62°
2026-04-30 18:49 51.51494 7.61004 431 ft 19 kts 51°
2026-04-30 18:50 51.51564 7.60993 425 ft 11 kts 262°
2026-04-30 18:50 51.51558 7.60944 426 ft 0 kts 259°
2026-04-30 18:50 51.51557 7.60940 426 ft 2 kts 259°
2026-04-30 18:50 51.51544 7.60830 427 ft 16 kts 253°
2026-04-30 18:51 51.51524 7.60697 428 ft 0 kts 271°
2026-04-30 18:51 51.51525 7.60694 428 ft 1 kts 274°
2026-04-30 18:51 51.51525 7.60686 428 ft 1 kts 275°
2026-04-30 18:51 51.51526 7.60678 428 ft 0 kts 275°
2026-04-30 18:52 51.51556 7.60620 425 ft 16 kts 335°
2026-04-30 18:52 51.51645 7.60682 416 ft 0 kts 58°
2026-04-30 18:53 51.51752 7.60985 412 ft 58 kts 62°
2026-04-30 18:53 51.51945 7.61616 546 ft 62 kts 73°
2026-04-30 18:53 51.52114 7.62205 757 ft 58 kts 68°
2026-04-30 18:53 51.52427 7.62673 972 ft 69 kts 31°
2026-04-30 18:54 51.52930 7.62689 1189 ft 81 kts
2026-04-30 18:54 51.53525 7.62440 1307 ft 94 kts 352°
2026-04-30 18:54 51.54144 7.62081 1504 ft 95 kts 350°
2026-04-30 18:54 51.54787 7.61674 1644 ft 100 kts 350°
2026-04-30 18:55 51.55428 7.61253 1831 ft 100 kts 352°
2026-04-30 18:55 51.56752 7.60469 2172 ft 101 kts 353°
2026-04-30 18:55 51.57448 7.60139 2264 ft 107 kts 359°
2026-04-30 18:56 51.58935 7.59618 2408 ft 110 kts
2026-04-30 18:56 51.59683 7.59369 2417 ft 110 kts 360°
2026-04-30 18:56 51.60467 7.59026 2319 ft 116 kts 358°
2026-04-30 18:57 51.62000 7.58627 2372 ft 103 kts
2026-04-30 18:57 51.62705 7.58576 2427 ft 101 kts 10°
2026-04-30 18:57 51.63401 7.58552 2449 ft 101 kts 15°
2026-04-30 18:58 51.64769 7.58728 2519 ft 97 kts 22°
2026-04-30 18:58 51.65425 7.58832 2605 ft 95 kts 19°
2026-04-30 18:58 51.66085 7.59039 2598 ft 95 kts 29°
2026-04-30 18:59 51.67057 7.59994 2719 ft 76 kts 62°
2026-04-30 19:00 51.68060 7.61903 2851 ft 71 kts 75°
2026-04-30 19:00 51.68276 7.62596 2916 ft 70 kts 75°
2026-04-30 19:00 51.68749 7.63887 3011 ft 70 kts 83°
2026-04-30 19:01 51.69175 7.65312 3023 ft 70 kts 84°
2026-04-30 19:01 51.69300 7.66032 3060 ft 67 kts 85°
2026-04-30 19:02 51.69608 7.67476 3081 ft 68 kts 83°
2026-04-30 19:02 51.70060 7.68824 3150 ft 68 kts 74°
2026-04-30 19:03 51.70549 7.70147 3177 ft 71 kts 73°
2026-04-30 19:03 51.71241 7.71189 3349 ft 68 kts 57°
2026-04-30 19:04 51.72060 7.72144 3390 ft 74 kts 56°
2026-04-30 19:04 51.72989 7.73020 3437 ft 75 kts 56°
2026-04-30 19:05 51.73918 7.74001 3418 ft 77 kts 62°
2026-04-30 19:05 51.74647 7.75227 3456 ft 72 kts 71°
2026-04-30 19:06 51.75416 7.76421 3435 ft 85 kts 48°
2026-04-30 19:06 51.75991 7.76779 3395 ft 93 kts 38°
2026-04-30 19:06 51.77238 7.77442 3283 ft 96 kts 37°
2026-04-30 19:07 51.78634 7.77736 3112 ft 109 kts 20°
2026-04-30 19:07 51.79412 7.77658 2981 ft 117 kts
2026-04-30 19:08 51.81016 7.76471 2624 ft 137 kts 329°
2026-04-30 19:08 51.82159 7.74128 2528 ft 127 kts 302°
2026-04-30 19:08 51.82562 7.72865 2529 ft 125 kts 298°
2026-04-30 19:09 51.83161 7.70232 2474 ft 127 kts 288°
2026-04-30 19:09 51.83427 7.68862 2449 ft 128 kts 286°
2026-04-30 19:09 51.83660 7.67457 2417 ft 127 kts 289°
2026-04-30 19:10 51.84256 7.64687 2236 ft 134 kts 294°
2026-04-30 19:10 51.84977 7.61960 2131 ft 131 kts 292°
2026-04-30 19:11 51.85266 7.60584 2080 ft 132 kts 286°
2026-04-30 19:11 51.85576 7.57585 1851 ft 135 kts 280°
2026-04-30 19:11 51.85777 7.56157 1908 ft 123 kts 281°
2026-04-30 19:12 51.86067 7.54898 1962 ft 118 kts 306°
2026-04-30 19:12 51.86602 7.53935 1937 ft 114 kts 340°
2026-04-30 19:12 51.87299 7.53727 1957 ft 95 kts 23°
2026-04-30 19:13 51.88580 7.53890 2062 ft 94 kts 15°
2026-04-30 19:13 51.89932 7.53746 2094 ft 92 kts 24°
2026-04-30 19:13 51.90556 7.53872 2151 ft 90 kts 25°
2026-04-30 19:14 51.91192 7.54018 2181 ft 94 kts 20°
2026-04-30 19:14 51.91797 7.54186 2228 ft 91 kts 26°
2026-04-30 19:14 51.92480 7.54096 2246 ft 102 kts
2026-04-30 19:14 51.93171 7.53932 2298 ft 99 kts
2026-04-30 19:15 51.93863 7.53829 2290 ft 100 kts 13°
2026-04-30 19:15 51.95255 7.53902 2188 ft 100 kts 21°
2026-04-30 19:15 51.95943 7.54040 2113 ft 98 kts 25°
2026-04-30 19:16 51.96591 7.54314 2046 ft 95 kts 33°
2026-04-30 19:16 51.97196 7.54693 2011 ft 90 kts 37°
2026-04-30 19:16 51.98298 7.55490 1993 ft 83 kts 43°
2026-04-30 19:17 51.98795 7.55952 1974 ft 81 kts 48°
2026-04-30 19:17 51.99699 7.57002 1938 ft 80 kts 51°
2026-04-30 19:17 52.00128 7.57576 1917 ft 80 kts 53°
2026-04-30 19:18 52.00727 7.58304 1920 ft 80 kts 51°
2026-04-30 19:18 52.01492 7.59101 1966 ft 75 kts 46°
2026-04-30 19:18 52.01956 7.59531 1944 ft 81 kts 39°
2026-04-30 19:19 52.02487 7.59936 1894 ft 85 kts 39°
2026-04-30 19:19 52.03016 7.60302 1892 ft 84 kts 39°
2026-04-30 19:19 52.04060 7.61059 1918 ft 80 kts 41°
2026-04-30 19:20 52.04555 7.61448 1945 ft 76 kts 43°
2026-04-30 19:20 52.05028 7.61862 1922 ft 81 kts 43°
2026-04-30 19:20 52.06114 7.62806 1715 ft 89 kts 37°
2026-04-30 19:21 52.06712 7.63151 1595 ft 90 kts 33°
2026-04-30 19:21 52.07961 7.63719 1357 ft 89 kts 31°
2026-04-30 19:22 52.09082 7.64320 1286 ft 80 kts 31°
2026-04-30 19:22 52.10508 7.65585 1271 ft 83 kts 50°
2026-04-30 19:23 52.11475 7.67886 1237 ft 80 kts 76°
2026-04-30 19:24 52.11810 7.69735 1103 ft 82 kts 79°
2026-04-30 19:24 52.11932 7.70376 1141 ft 52 kts 79°
2026-04-30 19:24 52.12285 7.71513 973 ft 67 kts 42°
2026-04-30 19:25 52.13671 7.71997 651 ft 69 kts 347°
2026-04-30 19:26 52.13914 7.70637 457 ft 74 kts 246°
2026-04-30 19:26 52.13604 7.69157 191 ft 63 kts 248°
2026-04-30 19:26 52.13486 7.68584 154 ft 42 kts 252°
2026-04-30 19:27 52.13315 7.68290 154 ft 0 kts 157°
2026-04-30 19:28 52.13311 7.68292 154 ft 4 kts 161°
2026-04-30 19:28 52.13168 7.68299 154 ft 4 kts 251°
2026-04-30 19:29 52.13126 7.68255 154 ft 0 kts 274°